sensor_id;sensor_type;location;lat;lon;timestamp;temperature;humidity
28959;DHT22;16066;0.000;0.000;2023-07-31T05:31:04;18.70;71.60
28959;DHT22;16066;0.000;0.000;2023-07-31T05:33:31;18.70;71.50
28959;DHT22;16066;0.000;0.000;2023-07-31T05:35:57;18.70;71.50
28959;DHT22;16066;0.000;0.000;2023-07-31T05:38:22;18.70;71.50
28959;DHT22;16066;0.000;0.000;2023-07-31T05:40:48;18.70;71.50
28959;DHT22;16066;0.000;0.000;2023-07-31T05:43:14;18.70;71.60
28959;DHT22;16066;0.000;0.000;2023-07-31T05:45:42;18.70;71.70
28959;DHT22;16066;0.000;0.000;2023-07-31T05:48:08;18.70;71.60
28959;DHT22;16066;0.000;0.000;2023-07-31T05:50:33;18.70;71.50
28959;DHT22;16066;0.000;0.000;2023-07-31T05:52:59;18.80;71.60
28959;DHT22;16066;0.000;0.000;2023-07-31T05:55:25;18.80;71.40
28959;DHT22;16066;0.000;0.000;2023-07-31T05:57:52;18.80;71.30
28959;DHT22;16066;0.000;0.000;2023-07-31T06:00:18;18.80;71.10
28959;DHT22;16066;0.000;0.000;2023-07-31T06:02:44;18.80;71.20
28959;DHT22;16066;0.000;0.000;2023-07-31T06:05:09;18.80;71.10
28959;DHT22;16066;0.000;0.000;2023-07-31T06:07:35;18.90;71.10
28959;DHT22;16066;0.000;0.000;2023-07-31T06:10:01;18.90;71.00
28959;DHT22;16066;0.000;0.000;2023-07-31T06:12:30;18.90;71.00
28959;DHT22;16066;0.000;0.000;2023-07-31T06:14:56;18.90;71.00
28959;DHT22;16066;0.000;0.000;2023-07-31T06:17:22;18.90;70.90
28959;DHT22;16066;0.000;0.000;2023-07-31T06:19:49;18.90;70.90
28959;DHT22;16066;0.000;0.000;2023-07-31T06:22:14;18.90;70.90
28959;DHT22;16066;0.000;0.000;2023-07-31T06:24:40;18.90;70.80
28959;DHT22;16066;0.000;0.000;2023-07-31T06:27:06;18.90;70.80
28959;DHT22;16066;0.000;0.000;2023-07-31T06:29:31;18.90;70.70
28959;DHT22;16066;0.000;0.000;2023-07-31T06:31:57;18.90;70.80
28959;DHT22;16066;0.000;0.000;2023-07-31T06:34:23;18.90;70.90
28959;DHT22;16066;0.000;0.000;2023-07-31T06:36:48;18.90;71.10
28959;DHT22;16066;0.000;0.000;2023-07-31T06:39:14;18.90;71.30
28959;DHT22;16066;0.000;0.000;2023-07-31T06:41:39;18.90;71.30
28959;DHT22;16066;0.000;0.000;2023-07-31T06:44:05;18.90;71.40
28959;DHT22;16066;0.000;0.000;2023-07-31T06:46:30;19.00;71.70
28959;DHT22;16066;0.000;0.000;2023-07-31T06:48:56;18.90;71.50
28959;DHT22;16066;0.000;0.000;2023-07-31T06:51:21;18.90;71.60
28959;DHT22;16066;0.000;0.000;2023-07-31T06:53:47;18.90;71.60
28959;DHT22;16066;0.000;0.000;2023-07-31T06:56:12;18.90;71.50
28959;DHT22;16066;0.000;0.000;2023-07-31T06:58:38;18.90;71.60
28959;DHT22;16066;0.000;0.000;2023-07-31T07:01:04;18.90;71.60
28959;DHT22;16066;0.000;0.000;2023-07-31T07:03:30;18.90;71.80
28959;DHT22;16066;0.000;0.000;2023-07-31T07:05:55;18.90;71.90
28959;DHT22;16066;0.000;0.000;2023-07-31T07:08:21;18.90;72.00
28959;DHT22;16066;0.000;0.000;2023-07-31T07:10:46;18.90;72.00
28959;DHT22;16066;0.000;0.000;2023-07-31T07:13:12;18.80;71.90
28959;DHT22;16066;0.000;0.000;2023-07-31T07:15:38;18.80;71.90
28959;DHT22;16066;0.000;0.000;2023-07-31T07:18:04;18.80;71.90
28959;DHT22;16066;0.000;0.000;2023-07-31T07:20:30;18.80;71.90
28959;DHT22;16066;0.000;0.000;2023-07-31T07:22:55;18.80;71.90
28959;DHT22;16066;0.000;0.000;2023-07-31T07:25:21;18.80;72.00
28959;DHT22;16066;0.000;0.000;2023-07-31T07:27:46;18.80;72.70
28959;DHT22;16066;0.000;0.000;2023-07-31T07:30:12;18.80;71.90
28959;DHT22;16066;0.000;0.000;2023-07-31T07:32:39;18.80;72.00
28959;DHT22;16066;0.000;0.000;2023-07-31T07:35:05;18.80;72.10
28959;DHT22;16066;0.000;0.000;2023-07-31T07:37:31;18.80;72.10
28959;DHT22;16066;0.000;0.000;2023-07-31T07:39:57;18.80;72.20
28959;DHT22;16066;0.000;0.000;2023-07-31T07:42:23;18.80;72.20
28959;DHT22;16066;0.000;0.000;2023-07-31T07:44:48;18.80;72.40
28959;DHT22;16066;0.000;0.000;2023-07-31T07:47:14;18.80;73.20
28959;DHT22;16066;0.000;0.000;2023-07-31T07:49:39;18.80;72.70
28959;DHT22;16066;0.000;0.000;2023-07-31T07:52:05;18.80;72.70
28959;DHT22;16066;0.000;0.000;2023-07-31T07:54:31;18.80;72.80
28959;DHT22;16066;0.000;0.000;2023-07-31T07:56:57;18.80;72.90
28959;DHT22;16066;0.000;0.000;2023-07-31T07:59:22;18.80;72.80
28959;DHT22;16066;0.000;0.000;2023-07-31T08:01:48;18.80;73.00
28959;DHT22;16066;0.000;0.000;2023-07-31T08:04:13;18.80;72.90
28959;DHT22;16066;0.000;0.000;2023-07-31T08:06:39;18.80;73.10
28959;DHT22;16066;0.000;0.000;2023-07-31T08:09:05;18.80;73.10
28959;DHT22;16066;0.000;0.000;2023-07-31T08:11:32;18.80;73.20
28959;DHT22;16066;0.000;0.000;2023-07-31T08:13:58;18.80;73.30
28959;DHT22;16066;0.000;0.000;2023-07-31T08:16:23;18.80;73.40
28959;DHT22;16066;0.000;0.000;2023-07-31T08:18:49;18.80;73.50
28959;DHT22;16066;0.000;0.000;2023-07-31T08:21:14;18.80;73.60
28959;DHT22;16066;0.000;0.000;2023-07-31T08:23:40;18.80;73.60
28959;DHT22;16066;0.000;0.000;2023-07-31T08:26:06;18.80;73.40
28959;DHT22;16066;0.000;0.000;2023-07-31T08:28:32;18.80;73.40
28959;DHT22;16066;0.000;0.000;2023-07-31T08:30:58;18.80;73.20
28959;DHT22;16066;0.000;0.000;2023-07-31T08:33:23;18.80;73.30
28959;DHT22;16066;0.000;0.000;2023-07-31T08:35:49;18.80;73.50
28959;DHT22;16066;0.000;0.000;2023-07-31T08:38:14;18.80;73.40
28959;DHT22;16066;0.000;0.000;2023-07-31T08:40:40;18.80;73.20
28959;DHT22;16066;0.000;0.000;2023-07-31T08:43:06;18.80;73.00
28959;DHT22;16066;0.000;0.000;2023-07-31T08:45:32;18.80;72.80
28959;DHT22;16066;0.000;0.000;2023-07-31T08:47:59;18.80;72.80
28959;DHT22;16066;0.000;0.000;2023-07-31T08:50:24;18.90;72.90
28959;DHT22;16066;0.000;0.000;2023-07-31T08:52:51;18.90;72.60
28959;DHT22;16066;0.000;0.000;2023-07-31T08:55:18;19.00;73.00
28959;DHT22;16066;0.000;0.000;2023-07-31T08:57:49;19.10;72.00
28959;DHT22;16066;0.000;0.000;2023-07-31T09:00:16;19.10;72.00
28959;DHT22;16066;0.000;0.000;2023-07-31T09:03:03;19.20;71.80
28959;DHT22;16066;0.000;0.000;2023-07-31T09:05:30;19.30;71.70
28959;DHT22;16066;0.000;0.000;2023-07-31T09:07:57;19.40;71.70
28959;DHT22;16066;0.000;0.000;2023-07-31T09:10:23;19.50;71.70
28959;DHT22;16066;0.000;0.000;2023-07-31T09:12:49;19.50;71.30
28959;DHT22;16066;0.000;0.000;2023-07-31T09:15:16;19.50;71.10
28959;DHT22;16066;0.000;0.000;2023-07-31T09:17:42;19.60;71.10
28959;DHT22;16066;0.000;0.000;2023-07-31T09:20:21;19.70;71.30
28959;DHT22;16066;0.000;0.000;2023-07-31T09:22:48;19.70;71.20
28959;DHT22;16066;0.000;0.000;2023-07-31T09:25:25;19.70;71.10
28959;DHT22;16066;0.000;0.000;2023-07-31T09:27:53;19.80;71.10
28959;DHT22;16066;0.000;0.000;2023-07-31T09:30:19;19.80;71.00
28959;DHT22;16066;0.000;0.000;2023-07-31T09:32:45;19.90;71.00
28959;DHT22;16066;0.000;0.000;2023-07-31T09:37:49;20.00;70.60
28959;DHT22;16066;0.000;0.000;2023-07-31T09:40:34;20.00;70.50
28959;DHT22;16066;0.000;0.000;2023-07-31T09:43:03;20.10;70.30
28959;DHT22;16066;0.000;0.000;2023-07-31T09:45:30;20.10;70.40
28959;DHT22;16066;0.000;0.000;2023-07-31T09:47:56;20.10;70.30
28959;DHT22;16066;0.000;0.000;2023-07-31T09:50:24;20.20;70.20
28959;DHT22;16066;0.000;0.000;2023-07-31T09:52:51;20.20;70.00
28959;DHT22;16066;0.000;0.000;2023-07-31T09:55:17;20.30;70.00
28959;DHT22;16066;0.000;0.000;2023-07-31T09:57:48;20.30;69.90
28959;DHT22;16066;0.000;0.000;2023-07-31T10:00:16;20.30;69.80
28959;DHT22;16066;0.000;0.000;2023-07-31T10:02:45;20.30;69.60
28959;DHT22;16066;0.000;0.000;2023-07-31T10:05:13;20.30;69.30
28959;DHT22;16066;0.000;0.000;2023-07-31T10:07:39;20.40;69.20
28959;DHT22;16066;0.000;0.000;2023-07-31T10:10:08;20.40;69.10
28959;DHT22;16066;0.000;0.000;2023-07-31T10:12:36;20.40;69.10
28959;DHT22;16066;0.000;0.000;2023-07-31T10:15:03;20.40;69.00
28959;DHT22;16066;0.000;0.000;2023-07-31T10:17:30;20.40;68.90
28959;DHT22;16066;0.000;0.000;2023-07-31T10:19:58;20.40;68.70
28959;DHT22;16066;0.000;0.000;2023-07-31T10:22:26;20.50;68.70
28959;DHT22;16066;0.000;0.000;2023-07-31T10:24:52;20.50;68.60
28959;DHT22;16066;0.000;0.000;2023-07-31T10:27:19;20.50;68.60
28959;DHT22;16066;0.000;0.000;2023-07-31T10:29:45;20.40;68.60
28959;DHT22;16066;0.000;0.000;2023-07-31T10:32:14;20.50;68.70
28959;DHT22;16066;0.000;0.000;2023-07-31T10:34:42;20.50;68.60
28959;DHT22;16066;0.000;0.000;2023-07-31T10:37:35;20.50;68.50
28959;DHT22;16066;0.000;0.000;2023-07-31T10:40:06;20.50;68.60
28959;DHT22;16066;0.000;0.000;2023-07-31T10:42:36;20.50;68.60
28959;DHT22;16066;0.000;0.000;2023-07-31T10:45:09;20.50;68.50
28959;DHT22;16066;0.000;0.000;2023-07-31T10:47:42;20.50;68.40
28959;DHT22;16066;0.000;0.000;2023-07-31T10:52:53;20.40;68.40
28959;DHT22;16066;0.000;0.000;2023-07-31T10:55:38;20.40;68.20
28959;DHT22;16066;0.000;0.000;2023-07-31T10:58:11;20.50;68.40
28959;DHT22;16066;0.000;0.000;2023-07-31T11:00:39;20.40;68.30
28959;DHT22;16066;0.000;0.000;2023-07-31T11:03:07;20.40;68.10
28959;DHT22;16066;0.000;0.000;2023-07-31T11:05:49;20.50;68.20
28959;DHT22;16066;0.000;0.000;2023-07-31T11:08:20;20.50;68.20
28959;DHT22;16066;0.000;0.000;2023-07-31T11:10:46;20.50;68.20
28959;DHT22;16066;0.000;0.000;2023-07-31T11:13:13;20.50;68.10
28959;DHT22;16066;0.000;0.000;2023-07-31T11:15:39;20.50;68.20
28959;DHT22;16066;0.000;0.000;2023-07-31T11:18:05;20.50;68.10
28959;DHT22;16066;0.000;0.000;2023-07-31T11:20:34;20.50;68.10
28959;DHT22;16066;0.000;0.000;2023-07-31T11:23:07;20.50;68.00
28959;DHT22;16066;0.000;0.000;2023-07-31T11:25:34;20.50;67.90
28959;DHT22;16066;0.000;0.000;2023-07-31T11:28:10;20.50;67.90
28959;DHT22;16066;0.000;0.000;2023-07-31T11:30:37;20.50;67.90
28959;DHT22;16066;0.000;0.000;2023-07-31T11:33:04;20.50;67.90
28959;DHT22;16066;0.000;0.000;2023-07-31T11:35:31;20.50;67.90
28959;DHT22;16066;0.000;0.000;2023-07-31T11:37:57;20.50;67.70
28959;DHT22;16066;0.000;0.000;2023-07-31T11:40:22;20.50;67.80
28959;DHT22;16066;0.000;0.000;2023-07-31T11:42:54;20.50;67.80
28959;DHT22;16066;0.000;0.000;2023-07-31T11:45:19;20.50;67.80
28959;DHT22;16066;0.000;0.000;2023-07-31T11:47:45;20.50;67.70
28959;DHT22;16066;0.000;0.000;2023-07-31T11:50:11;20.50;67.80
28959;DHT22;16066;0.000;0.000;2023-07-31T11:52:44;20.60;67.70
28959;DHT22;16066;0.000;0.000;2023-07-31T11:55:12;20.60;67.70
28959;DHT22;16066;0.000;0.000;2023-07-31T11:57:39;20.60;67.60
28959;DHT22;16066;0.000;0.000;2023-07-31T12:00:12;20.60;67.60
28959;DHT22;16066;0.000;0.000;2023-07-31T12:02:39;20.60;67.70
28959;DHT22;16066;0.000;0.000;2023-07-31T12:05:11;20.70;67.70
28959;DHT22;16066;0.000;0.000;2023-07-31T12:07:52;20.70;67.60
28959;DHT22;16066;0.000;0.000;2023-07-31T12:10:31;20.70;67.40
28959;DHT22;16066;0.000;0.000;2023-07-31T12:13:05;20.70;67.30
28959;DHT22;16066;0.000;0.000;2023-07-31T12:15:40;20.70;67.30
28959;DHT22;16066;0.000;0.000;2023-07-31T12:18:07;20.80;67.30
28959;DHT22;16066;0.000;0.000;2023-07-31T12:20:33;20.80;67.10
28959;DHT22;16066;0.000;0.000;2023-07-31T12:22:59;20.80;67.20
28959;DHT22;16066;0.000;0.000;2023-07-31T12:25:32;20.80;67.20
28959;DHT22;16066;0.000;0.000;2023-07-31T12:28:03;20.90;67.20
28959;DHT22;16066;0.000;0.000;2023-07-31T12:30:35;20.80;66.90
28959;DHT22;16066;0.000;0.000;2023-07-31T12:33:15;20.80;66.90
28959;DHT22;16066;0.000;0.000;2023-07-31T12:35:43;20.80;66.80
28959;DHT22;16066;0.000;0.000;2023-07-31T12:38:09;20.80;66.90
28959;DHT22;16066;0.000;0.000;2023-07-31T12:40:37;20.90;66.90
28959;DHT22;16066;0.000;0.000;2023-07-31T12:43:03;20.90;66.90
28959;DHT22;16066;0.000;0.000;2023-07-31T12:45:30;20.90;66.90
28959;DHT22;16066;0.000;0.000;2023-07-31T12:47:56;20.90;66.90
28959;DHT22;16066;0.000;0.000;2023-07-31T12:50:22;21.00;67.00
28959;DHT22;16066;0.000;0.000;2023-07-31T12:52:49;20.90;67.00
28959;DHT22;16066;0.000;0.000;2023-07-31T12:55:14;20.90;67.70
28959;DHT22;16066;0.000;0.000;2023-07-31T12:57:40;20.90;67.00
28959;DHT22;16066;0.000;0.000;2023-07-31T13:00:07;20.90;67.70
28959;DHT22;16066;0.000;0.000;2023-07-31T13:02:33;21.00;67.30
28959;DHT22;16066;0.000;0.000;2023-07-31T13:04:58;21.00;67.50
28959;DHT22;16066;0.000;0.000;2023-07-31T13:07:24;21.00;67.50
28959;DHT22;16066;0.000;0.000;2023-07-31T13:09:51;21.00;67.60
28959;DHT22;16066;0.000;0.000;2023-07-31T13:12:16;21.10;67.70
28959;DHT22;16066;0.000;0.000;2023-07-31T13:14:42;21.10;67.60
28959;DHT22;16066;0.000;0.000;2023-07-31T13:17:07;21.10;67.50
28959;DHT22;16066;0.000;0.000;2023-07-31T13:19:33;21.20;67.70
28959;DHT22;16066;0.000;0.000;2023-07-31T13:21:58;21.20;67.60
28959;DHT22;16066;0.000;0.000;2023-07-31T13:24:24;21.20;67.30
28959;DHT22;16066;0.000;0.000;2023-07-31T13:26:49;21.20;67.00
28959;DHT22;16066;0.000;0.000;2023-07-31T13:29:15;21.20;66.90
28959;DHT22;16066;0.000;0.000;2023-07-31T13:31:40;21.20;66.80
28959;DHT22;16066;0.000;0.000;2023-07-31T13:34:06;21.20;66.70
28959;DHT22;16066;0.000;0.000;2023-07-31T13:36:31;21.20;66.60
28959;DHT22;16066;0.000;0.000;2023-07-31T13:38:59;21.20;66.50
28959;DHT22;16066;0.000;0.000;2023-07-31T13:41:25;21.20;66.10
28959;DHT22;16066;0.000;0.000;2023-07-31T13:43:50;21.30;66.10
28959;DHT22;16066;0.000;0.000;2023-07-31T13:46:16;21.30;66.10
28959;DHT22;16066;0.000;0.000;2023-07-31T13:48:41;21.30;66.10
28959;DHT22;16066;0.000;0.000;2023-07-31T13:51:07;21.30;66.00
28959;DHT22;16066;0.000;0.000;2023-07-31T13:53:32;21.30;66.00
28959;DHT22;16066;0.000;0.000;2023-07-31T13:55:58;21.30;65.90
28959;DHT22;16066;0.000;0.000;2023-07-31T13:58:23;21.30;65.80
28959;DHT22;16066;0.000;0.000;2023-07-31T14:00:49;21.30;65.70
28959;DHT22;16066;0.000;0.000;2023-07-31T14:03:14;21.30;65.60
28959;DHT22;16066;0.000;0.000;2023-07-31T14:05:40;21.30;65.50
28959;DHT22;16066;0.000;0.000;2023-07-31T14:08:05;21.30;65.40
28959;DHT22;16066;0.000;0.000;2023-07-31T14:10:31;21.40;65.50
28959;DHT22;16066;0.000;0.000;2023-07-31T14:12:56;21.40;65.40
28959;DHT22;16066;0.000;0.000;2023-07-31T14:15:22;21.40;65.30
28959;DHT22;16066;0.000;0.000;2023-07-31T14:17:47;21.40;65.20
28959;DHT22;16066;0.000;0.000;2023-07-31T14:20:13;21.40;65.20
28959;DHT22;16066;0.000;0.000;2023-07-31T14:22:38;21.40;65.20
28959;DHT22;16066;0.000;0.000;2023-07-31T14:25:04;21.40;65.20
28959;DHT22;16066;0.000;0.000;2023-07-31T14:27:30;21.40;65.20
28959;DHT22;16066;0.000;0.000;2023-07-31T14:29:56;21.40;65.20
28959;DHT22;16066;0.000;0.000;2023-07-31T14:32:24;21.40;65.20
28959;DHT22;16066;0.000;0.000;2023-07-31T14:34:51;21.40;65.20
28959;DHT22;16066;0.000;0.000;2023-07-31T14:37:17;21.40;65.10
28959;DHT22;16066;0.000;0.000;2023-07-31T14:39:42;21.40;65.00
28959;DHT22;16066;0.000;0.000;2023-07-31T14:42:08;21.40;64.90
28959;DHT22;16066;0.000;0.000;2023-07-31T14:44:34;21.40;65.10
28959;DHT22;16066;0.000;0.000;2023-07-31T14:47:00;21.40;65.00
28959;DHT22;16066;0.000;0.000;2023-07-31T14:49:25;21.40;65.00
28959;DHT22;16066;0.000;0.000;2023-07-31T14:51:52;21.40;65.00
28959;DHT22;16066;0.000;0.000;2023-07-31T14:54:18;21.40;65.00
28959;DHT22;16066;0.000;0.000;2023-07-31T14:56:43;21.40;64.90
28959;DHT22;16066;0.000;0.000;2023-07-31T14:59:09;21.40;64.90
28959;DHT22;16066;0.000;0.000;2023-07-31T15:01:35;21.40;64.90
28959;DHT22;16066;0.000;0.000;2023-07-31T15:04:00;21.40;64.90
28959;DHT22;16066;0.000;0.000;2023-07-31T15:06:26;21.40;64.80
28959;DHT22;16066;0.000;0.000;2023-07-31T15:08:51;21.40;64.80
28959;DHT22;16066;0.000;0.000;2023-07-31T15:11:17;21.40;64.70
28959;DHT22;16066;0.000;0.000;2023-07-31T15:13:43;21.40;64.70
28959;DHT22;16066;0.000;0.000;2023-07-31T15:16:09;21.40;64.60
28959;DHT22;16066;0.000;0.000;2023-07-31T15:18:34;21.40;64.50
28959;DHT22;16066;0.000;0.000;2023-07-31T15:21:00;21.50;64.70
28959;DHT22;16066;0.000;0.000;2023-07-31T15:23:25;21.50;64.60
28959;DHT22;16066;0.000;0.000;2023-07-31T15:25:51;21.50;64.60
28959;DHT22;16066;0.000;0.000;2023-07-31T15:28:18;21.50;64.60
28959;DHT22;16066;0.000;0.000;2023-07-31T15:30:44;21.50;64.60
28959;DHT22;16066;0.000;0.000;2023-07-31T15:33:09;21.50;64.60
28959;DHT22;16066;0.000;0.000;2023-07-31T15:35:35;21.50;64.40
28959;DHT22;16066;0.000;0.000;2023-07-31T15:38:00;21.60;64.40
28959;DHT22;16066;0.000;0.000;2023-07-31T15:40:26;21.60;64.50
28959;DHT22;16066;0.000;0.000;2023-07-31T15:42:51;21.60;64.30
28959;DHT22;16066;0.000;0.000;2023-07-31T15:45:17;21.50;64.00
28959;DHT22;16066;0.000;0.000;2023-07-31T15:47:42;21.60;64.00
28959;DHT22;16066;0.000;0.000;2023-07-31T15:50:08;21.60;63.90
28959;DHT22;16066;0.000;0.000;2023-07-31T15:52:34;21.50;64.00
28959;DHT22;16066;0.000;0.000;2023-07-31T15:54:59;21.50;64.00
28959;DHT22;16066;0.000;0.000;2023-07-31T15:57:25;21.50;63.90
28959;DHT22;16066;0.000;0.000;2023-07-31T15:59:50;21.60;64.00
28959;DHT22;16066;0.000;0.000;2023-07-31T16:02:16;21.60;64.00
28959;DHT22;16066;0.000;0.000;2023-07-31T16:04:41;21.60;64.00
28959;DHT22;16066;0.000;0.000;2023-07-31T16:07:07;21.60;64.00
28959;DHT22;16066;0.000;0.000;2023-07-31T16:09:32;21.60;63.90
28959;DHT22;16066;0.000;0.000;2023-07-31T16:11:58;21.60;63.80
28959;DHT22;16066;0.000;0.000;2023-07-31T16:14:23;21.60;63.90
28959;DHT22;16066;0.000;0.000;2023-07-31T16:16:49;21.70;63.80
28959;DHT22;16066;0.000;0.000;2023-07-31T16:19:14;21.60;63.50
28959;DHT22;16066;0.000;0.000;2023-07-31T16:21:40;21.70;63.60
28959;DHT22;16066;0.000;0.000;2023-07-31T16:24:05;21.70;63.60
28959;DHT22;16066;0.000;0.000;2023-07-31T16:26:31;21.70;63.50
28959;DHT22;16066;0.000;0.000;2023-07-31T16:28:58;21.70;63.40
28959;DHT22;16066;0.000;0.000;2023-07-31T16:31:24;21.70;63.50
28959;DHT22;16066;0.000;0.000;2023-07-31T16:33:51;21.70;63.60
28959;DHT22;16066;0.000;0.000;2023-07-31T16:36:16;21.70;63.60
28959;DHT22;16066;0.000;0.000;2023-07-31T16:38:44;21.70;63.60
28959;DHT22;16066;0.000;0.000;2023-07-31T16:41:10;21.70;63.70
28959;DHT22;16066;0.000;0.000;2023-07-31T16:43:35;21.70;63.90
28959;DHT22;16066;0.000;0.000;2023-07-31T16:46:01;21.70;64.20
28959;DHT22;16066;0.000;0.000;2023-07-31T16:48:26;21.70;64.10
28959;DHT22;16066;0.000;0.000;2023-07-31T16:50:52;21.70;64.20
28959;DHT22;16066;0.000;0.000;2023-07-31T16:53:17;21.70;64.10
28959;DHT22;16066;0.000;0.000;2023-07-31T16:55:43;21.60;64.60
28959;DHT22;16066;0.000;0.000;2023-07-31T16:58:09;21.60;63.90
28959;DHT22;16066;0.000;0.000;2023-07-31T17:00:34;21.70;64.10
28959;DHT22;16066;0.000;0.000;2023-07-31T17:03:00;21.70;64.20
28959;DHT22;16066;0.000;0.000;2023-07-31T17:05:26;21.70;64.20
28959;DHT22;16066;0.000;0.000;2023-07-31T17:07:51;21.70;64.20
28959;DHT22;16066;0.000;0.000;2023-07-31T17:10:17;21.70;64.10
28959;DHT22;16066;0.000;0.000;2023-07-31T17:12:42;21.70;64.10
28959;DHT22;16066;0.000;0.000;2023-07-31T17:15:08;21.70;64.10
28959;DHT22;16066;0.000;0.000;2023-07-31T17:17:34;21.70;64.30
28959;DHT22;16066;0.000;0.000;2023-07-31T17:19:59;21.60;64.10
28959;DHT22;16066;0.000;0.000;2023-07-31T17:22:25;21.60;64.00
28959;DHT22;16066;0.000;0.000;2023-07-31T17:24:51;21.60;64.00
28959;DHT22;16066;0.000;0.000;2023-07-31T17:27:16;21.60;64.10
28959;DHT22;16066;0.000;0.000;2023-07-31T17:29:42;21.60;64.30
28959;DHT22;16066;0.000;0.000;2023-07-31T17:32:07;21.60;64.30
28959;DHT22;16066;0.000;0.000;2023-07-31T17:34:33;21.60;64.30
28959;DHT22;16066;0.000;0.000;2023-07-31T17:36:58;21.50;64.40
28959;DHT22;16066;0.000;0.000;2023-07-31T17:39:24;21.60;64.70
28959;DHT22;16066;0.000;0.000;2023-07-31T17:41:49;21.50;64.60
28959;DHT22;16066;0.000;0.000;2023-07-31T17:44:15;21.50;64.50
28959;DHT22;16066;0.000;0.000;2023-07-31T17:46:41;21.50;64.60
28959;DHT22;16066;0.000;0.000;2023-07-31T17:49:06;21.60;64.90
28959;DHT22;16066;0.000;0.000;2023-07-31T17:51:32;21.60;64.70
28959;DHT22;16066;0.000;0.000;2023-07-31T17:53:59;21.60;64.60
28959;DHT22;16066;0.000;0.000;2023-07-31T17:56:25;21.60;64.80
28959;DHT22;16066;0.000;0.000;2023-07-31T17:58:50;21.60;64.80
28959;DHT22;16066;0.000;0.000;2023-07-31T18:01:16;21.60;65.00
28959;DHT22;16066;0.000;0.000;2023-07-31T18:03:41;21.60;65.10
28959;DHT22;16066;0.000;0.000;2023-07-31T18:06:07;21.60;65.10
28959;DHT22;16066;0.000;0.000;2023-07-31T18:08:32;21.60;65.00
28959;DHT22;16066;0.000;0.000;2023-07-31T18:10:58;21.60;65.00
28959;DHT22;16066;0.000;0.000;2023-07-31T18:13:24;21.60;65.50
28959;DHT22;16066;0.000;0.000;2023-07-31T18:15:49;21.60;64.90
28959;DHT22;16066;0.000;0.000;2023-07-31T18:18:15;21.60;64.90
28959;DHT22;16066;0.000;0.000;2023-07-31T18:20:40;21.60;64.80
28959;DHT22;16066;0.000;0.000;2023-07-31T18:23:06;21.60;64.90
28959;DHT22;16066;0.000;0.000;2023-07-31T18:25:32;21.60;64.80
28959;DHT22;16066;0.000;0.000;2023-07-31T18:27:57;21.60;64.80
28959;DHT22;16066;0.000;0.000;2023-07-31T18:30:23;21.60;64.90
28959;DHT22;16066;0.000;0.000;2023-07-31T18:32:48;21.60;64.70
28959;DHT22;16066;0.000;0.000;2023-07-31T18:35:14;21.60;64.80
28959;DHT22;16066;0.000;0.000;2023-07-31T18:37:42;21.60;64.70
28959;DHT22;16066;0.000;0.000;2023-07-31T18:40:08;21.60;65.00
28959;DHT22;16066;0.000;0.000;2023-07-31T18:42:33;21.60;65.00
28959;DHT22;16066;0.000;0.000;2023-07-31T18:44:59;21.60;65.00
28959;DHT22;16066;0.000;0.000;2023-07-31T18:47:24;21.60;65.00
28959;DHT22;16066;0.000;0.000;2023-07-31T18:49:50;21.50;65.00
28959;DHT22;16066;0.000;0.000;2023-07-31T18:52:15;21.60;65.10
28959;DHT22;16066;0.000;0.000;2023-07-31T18:54:41;21.50;64.90
28959;DHT22;16066;0.000;0.000;2023-07-31T18:57:06;21.50;65.10
28959;DHT22;16066;0.000;0.000;2023-07-31T18:59:32;21.50;65.20
28959;DHT22;16066;0.000;0.000;2023-07-31T19:01:58;21.50;65.20
28959;DHT22;16066;0.000;0.000;2023-07-31T19:04:23;21.50;65.00
28959;DHT22;16066;0.000;0.000;2023-07-31T19:06:49;21.50;65.00
28959;DHT22;16066;0.000;0.000;2023-07-31T19:09:14;21.60;65.20
28959;DHT22;16066;0.000;0.000;2023-07-31T19:11:40;21.50;65.10
28959;DHT22;16066;0.000;0.000;2023-07-31T19:14:07;21.60;65.30
28959;DHT22;16066;0.000;0.000;2023-07-31T19:16:32;21.50;65.30
28959;DHT22;16066;0.000;0.000;2023-07-31T19:18:58;21.50;65.20
28959;DHT22;16066;0.000;0.000;2023-07-31T19:21:24;21.50;65.50
28959;DHT22;16066;0.000;0.000;2023-07-31T19:23:50;21.50;65.30
28959;DHT22;16066;0.000;0.000;2023-07-31T19:26:17;21.60;65.30
28959;DHT22;16066;0.000;0.000;2023-07-31T19:28:43;21.60;65.30
28959;DHT22;16066;0.000;0.000;2023-07-31T19:31:09;21.50;65.20
28959;DHT22;16066;0.000;0.000;2023-07-31T19:33:34;21.60;65.40
28959;DHT22;16066;0.000;0.000;2023-07-31T19:36:00;21.50;65.30
28959;DHT22;16066;0.000;0.000;2023-07-31T19:38:26;21.50;65.20
28959;DHT22;16066;0.000;0.000;2023-07-31T19:40:52;21.50;65.40
28959;DHT22;16066;0.000;0.000;2023-07-31T19:43:18;21.50;65.40
28959;DHT22;16066;0.000;0.000;2023-07-31T19:45:43;21.50;65.50
28959;DHT22;16066;0.000;0.000;2023-07-31T19:48:09;21.50;65.30
28959;DHT22;16066;0.000;0.000;2023-07-31T19:50:36;21.50;65.40
28959;DHT22;16066;0.000;0.000;2023-07-31T19:53:01;21.50;65.50
28959;DHT22;16066;0.000;0.000;2023-07-31T19:55:27;21.50;65.40
28959;DHT22;16066;0.000;0.000;2023-07-31T19:57:54;21.50;65.40
28959;DHT22;16066;0.000;0.000;2023-07-31T20:00:20;21.50;65.40
28959;DHT22;16066;0.000;0.000;2023-07-31T20:02:46;21.50;65.40
28959;DHT22;16066;0.000;0.000;2023-07-31T20:05:11;21.50;65.40
28959;DHT22;16066;0.000;0.000;2023-07-31T20:07:37;21.50;65.40
28959;DHT22;16066;0.000;0.000;2023-07-31T20:10:02;21.50;65.40
28959;DHT22;16066;0.000;0.000;2023-07-31T20:12:28;21.50;65.40
28959;DHT22;16066;0.000;0.000;2023-07-31T20:14:54;21.60;65.30
28959;DHT22;16066;0.000;0.000;2023-07-31T20:17:21;21.60;65.30
28959;DHT22;16066;0.000;0.000;2023-07-31T20:19:47;21.50;65.20
28959;DHT22;16066;0.000;0.000;2023-07-31T20:22:12;21.60;65.20
28959;DHT22;16066;0.000;0.000;2023-07-31T20:24:38;21.50;65.20
28959;DHT22;16066;0.000;0.000;2023-07-31T20:27:04;21.50;65.10
28959;DHT22;16066;0.000;0.000;2023-07-31T20:29:29;21.50;65.00
28959;DHT22;16066;0.000;0.000;2023-07-31T20:31:55;21.50;65.00
28959;DHT22;16066;0.000;0.000;2023-07-31T20:34:20;21.50;65.10
28959;DHT22;16066;0.000;0.000;2023-07-31T20:36:46;21.60;65.30
28959;DHT22;16066;0.000;0.000;2023-07-31T20:39:12;21.50;65.20
28959;DHT22;16066;0.000;0.000;2023-07-31T20:41:38;21.60;65.40
28959;DHT22;16066;0.000;0.000;2023-07-31T20:44:03;21.50;65.20
28959;DHT22;16066;0.000;0.000;2023-07-31T20:46:29;21.60;65.40
28959;DHT22;16066;0.000;0.000;2023-07-31T20:48:55;21.60;65.40
28959;DHT22;16066;0.000;0.000;2023-07-31T20:51:20;21.50;65.20
28959;DHT22;16066;0.000;0.000;2023-07-31T20:53:46;21.60;65.30
28959;DHT22;16066;0.000;0.000;2023-07-31T20:56:12;21.60;65.30
28959;DHT22;16066;0.000;0.000;2023-07-31T20:58:38;21.60;65.30
28959;DHT22;16066;0.000;0.000;2023-07-31T21:01:04;21.60;65.30
28959;DHT22;16066;0.000;0.000;2023-07-31T21:03:30;21.60;65.20
28959;DHT22;16066;0.000;0.000;2023-07-31T21:05:56;21.60;65.10
28959;DHT22;16066;0.000;0.000;2023-07-31T21:08:23;21.60;65.10
28959;DHT22;16066;0.000;0.000;2023-07-31T21:10:49;21.60;65.00
28959;DHT22;16066;0.000;0.000;2023-07-31T21:13:18;21.60;65.20
28959;DHT22;16066;0.000;0.000;2023-07-31T21:15:44;21.60;65.20